Featured Flight

MET183 - Los Angeles to Hong Kong

Boeing 777-300ER
786MU
15 hrs 15 mins
6305 nm
Scheduled - Daily

Bid/PiRep Status

Bid was submitted on Jan 04 2017.

No PiRep on file for this bid.

Departure

Departing from
Los Angeles (LAX)
Departure gate
Scheduled Departure
GMT 1940
Local 1140
METAR KLAX 221353Z 09010KT 7SM RA BKN025 OVC060 11/09 A3008 RMK AO2 SLP185 P0004 T01060089 $
TAF KLAX 221134Z 2212/2318 11007KT P6SM VCSH SCT025 OVC080 FM221300 11012KT P6SM -SHRA BKN025 OVC040 FM221500 12015G25KT 5SM -RA BR BKN012 OVC025 FM222000 15020G30KT 1SM +RA BR BKN007 OVC012 FM230100 21015G25KT 4SM -RA BKN012 OVC025 FM230300 23025G35KT 6SM -RA BKN025 OVC050 FM230800 24022KT 4SM -RA BR OVC025 PROB30 2308/2312 4SM -TSRA BKN025CB FM231200 29016KT P6SM -SHRA OVC050
  • No charts available

Arrival

Arriving at
Hong Kong (HKG)
Arrival gate
Terminal 1
Scheduled Arrival
GMT 1055
Local 1855
METAR VHHH 221400Z 14006KT 100V210 CAVOK 17/06 Q1025 NOSIG
TAF TAF VHHH 221100Z 2212/2318 06010KT 9000 NSC TX20/2307Z TN13/2223Z TEMPO 2212/2216 VRB05KT TEMPO 2303/2310 29010KT TEMPO 2313/2318 09015G25KT

Route Map

Planning Resources

KONT SLI J134 LAX J5 LANDO J50 EHF J5 YVR J590 YZT J523 YZP TRK18 KATCH B757 MARLO J123 ODK R341 NATES R220 GOC W18 KINPU Y88 SENJO W18 NAKTU V58 XMC V17 LABEL Y50 KOSHI A1 APU W4 HLG A1 ELATO J101 PONTI VHHH
POM7 PMD V197 AMONT V459 FRA V332 RBL J1 OED J501 TOU J523 YZP TR19 FRIED J804R MDO J179 ENM G583 BALUB B804 GIRAN B962 DITOR B233 NULAR B467 TENAS A586 CJU B576 SALMI L1 KADLO A1 ELATO STAR VHHH
VTU5 RZS LIBBO BRINY ALCOA CEPAS COBAD 4100N 1400W 4300N 1500W 4500N 1600W4700N 1800E 4600N 1600E KALNA OTR5 ADNAP OTR5 PABBA A590 MJE A1 RUSAR A1 APU MKG A1 ELATO V521 ABBEY
PMD ROBIE K SEALS YKE PLT
HASSA5 PMD J65 LANDO J50 EHF J5 YVR J590 YZT J523 YZP TRK18 KATCH B757 MARLO J123 ODK R341 NATES R220 GOC W18 KINPU Y88 SENJO W18 NAKTU V58 XMC V17 LABEL Y50 KOSHI A1 APU W4 HLG A1 ELATO J101 TUBBY DOTM5A 26DME CI07R 55IFL LC
Route:
OFP Layout:
Units:
Detailed Navlog:
ETOPS Planning:
Plan Stepclimbs:
Runway Analysis:
Include NOTAMS:
FIR NOTAMS:
Flight Maps:

Return Flights

MET184
Boeing 777-300ER
1200 GMT
MET194
Airbus A330-243
0145 GMT

Popularity

Hub Current Bids PiReps this month Total PiReps
KMCI 0 0 2
KLAX 0 0 0
KBOS 0 0 0